»·PEaware :: N132KT 2V5-KGCC

N132KT :: 2V5-KGCC

FLIGHT INFORMATION

Flight Status: Arrived
Operator: Privately registered:
United States
More flights under this callsign
Pilot: Keith S. (1)
Aircraft: BEECH AIRCRAFT BARON
(BE58)
More flights by this aircraft type
Origin: 2V5 Wray Mun
United States
Destination: KGCC Gillette-Campbell Co
United States
More flights between these airports :: More routes between these airports
Route:
File this flight plan on PilotEdge
Remarks:
Altitude:
(Current/Filed)
8,500ft
Speed:
(Current/Filed)
165kts
Departed: 14-May-19 06:13 AM
Arrived: 14-May-19 08:05 AM
Distance/Time
Traveled:
294nm/1:52
Distance/Time
To Go:
Arrived

Flight Plot

Page will automatically refresh every two minutes.

Flight plan parsing failed; only flown route is shown


Map Options




Map Legend


Flown Route
Filed Route
Departure Airport
Arrival Airport
Navaid (VOR, NDB)
Fix

Horizontal Profiles

Position Reports

Time Latitude Longitude Heading Altitude Ground
Speed
14-May-19 06:10 40.093196 -102.241145 359 3638ft 0kts
14-May-19 06:11 40.093196 -102.241145 359 3638ft 0kts
14-May-19 06:12 40.098329 -102.241180 356 3650ft 93kts
14-May-19 06:13 40.127707 -102.260766 322 4493ft 131kts
14-May-19 06:14 40.157972 -102.286569 328 5507ft 127kts
14-May-19 06:15 40.188651 -102.309550 330 6447ft 127kts
14-May-19 06:16 40.219577 -102.332033 330 7364ft 127kts
14-May-19 06:17 40.250556 -102.354415 331 8257ft 127kts
14-May-19 06:18 40.281550 -102.376794 331 9120ft 127kts
14-May-19 06:19 40.312441 -102.399114 331 9950ft 127kts
14-May-19 06:20 40.343326 -102.421449 331 10746ft 126kts
14-May-19 06:21 40.376112 -102.445121 332 10949ft 150kts
14-May-19 06:22 40.416107 -102.474063 331 10469ft 170kts
14-May-19 06:23 40.457647 -102.504250 331 10236ft 164kts
14-May-19 06:24 40.496787 -102.532711 331 10239ft 158kts
14-May-19 06:25 40.535212 -102.560673 331 10240ft 157kts
14-May-19 06:26 40.572504 -102.587847 331 10240ft 156kts
14-May-19 06:27 40.610871 -102.615842 331 10240ft 156kts
14-May-19 06:28 40.649189 -102.643838 331 10240ft 156kts
14-May-19 06:29 40.687707 -102.672017 331 10244ft 156kts
14-May-19 06:30 40.726103 -102.700144 331 10249ft 156kts
14-May-19 06:31 40.764270 -102.728140 331 10254ft 156kts
14-May-19 06:32 40.802383 -102.756136 331 10258ft 155kts
14-May-19 06:33 40.840621 -102.784260 331 10259ft 156kts
14-May-19 06:35 40.878788 -102.812370 331 10259ft 155kts
14-May-19 06:36 40.916877 -102.840459 331 10258ft 155kts
14-May-19 06:37 40.955065 -102.868659 331 10258ft 155kts
14-May-19 06:38 40.992960 -102.896668 330 10258ft 155kts
14-May-19 06:39 41.030751 -102.924645 330 10257ft 154kts
14-May-19 06:40 41.068050 -102.952294 330 10258ft 153kts
14-May-19 06:41 41.105119 -102.979801 329 10260ft 152kts
14-May-19 06:42 41.142405 -103.007525 328 10260ft 153kts
14-May-19 06:43 41.180012 -103.035527 328 10259ft 154kts
14-May-19 06:44 41.217777 -103.063677 328 10259ft 156kts
14-May-19 06:45 41.256010 -103.092213 328 10259ft 157kts
14-May-19 06:46 41.294478 -103.120965 328 10259ft 158kts
14-May-19 06:47 41.333253 -103.149985 328 10259ft 160kts
14-May-19 06:48 41.372189 -103.179165 328 10258ft 161kts
14-May-19 06:49 41.411488 -103.208656 328 10259ft 162kts
14-May-19 06:50 41.450872 -103.238250 328 10261ft 162kts
14-May-19 06:51 41.490377 -103.267980 328 10256ft 163kts
14-May-19 06:52 41.530019 -103.297854 328 10249ft 162kts
14-May-19 06:53 41.569592 -103.327718 328 10241ft 162kts
14-May-19 06:54 41.609066 -103.357550 328 10231ft 162kts
14-May-19 06:54 41.641341 -103.381972 328 10231ft 162kts
14-May-19 06:55 41.680518 -103.411656 328 10231ft 161kts
14-May-19 06:57 41.726402 -103.446476 328 10231ft 161kts
14-May-19 06:57 41.759297 -103.471475 328 10231ft 161kts
14-May-19 06:58 41.798514 -103.501316 328 10231ft 161kts
14-May-19 06:59 41.837936 -103.531358 328 10231ft 161kts
14-May-19 07:00 41.877311 -103.561405 328 10230ft 161kts
14-May-19 07:01 41.916472 -103.591332 328 10230ft 161kts
14-May-19 07:02 41.955741 -103.621385 328 10231ft 161kts
14-May-19 07:03 41.995188 -103.651617 327 10231ft 161kts
14-May-19 07:04 42.034741 -103.681970 327 10232ft 162kts
14-May-19 07:05 42.074176 -103.712279 327 10232ft 162kts
14-May-19 07:06 42.113504 -103.742551 327 10232ft 162kts
14-May-19 07:07 42.152862 -103.772891 327 10232ft 162kts
14-May-19 07:08 42.192226 -103.803277 327 10232ft 162kts
14-May-19 07:09 42.231154 -103.833337 327 10240ft 162kts
14-May-19 07:10 42.270771 -103.864036 327 10241ft 163kts
14-May-19 07:11 42.310499 -103.894842 327 10241ft 163kts
14-May-19 07:12 42.349644 -103.925236 326 10424ft 155kts
14-May-19 07:13 42.386827 -103.954157 326 10677ft 153kts
14-May-19 07:14 42.425804 -103.984508 327 10490ft 171kts
14-May-19 07:15 42.466519 -104.016246 327 10485ft 165kts
14-May-19 07:16 42.505980 -104.047066 327 10532ft 163kts
14-May-19 07:17 42.545733 -104.078158 327 10531ft 164kts
14-May-19 07:18 42.585332 -104.109174 327 10531ft 164kts
14-May-19 07:19 42.624894 -104.140209 327 10531ft 164kts
14-May-19 07:20 42.664563 -104.171374 327 10533ft 164kts
14-May-19 07:21 42.704169 -104.202537 327 10540ft 163kts
14-May-19 07:22 42.743765 -104.233738 327 10547ft 163kts
14-May-19 07:23 42.783249 -104.264897 327 10554ft 163kts
14-May-19 07:24 42.822620 -104.296011 327 10561ft 162kts
14-May-19 07:25 42.861895 -104.327097 327 10568ft 162kts
14-May-19 07:26 42.901234 -104.358285 327 10576ft 162kts
14-May-19 07:27 42.940642 -104.389576 327 10583ft 163kts
14-May-19 07:28 42.980215 -104.421038 328 10586ft 165kts
14-May-19 07:29 43.020232 -104.452901 328 10585ft 166kts
14-May-19 07:30 43.060455 -104.484967 328 10580ft 167kts
14-May-19 07:31 43.100915 -104.517274 328 10571ft 168kts
14-May-19 07:32 43.141643 -104.549849 328 10562ft 168kts
14-May-19 07:33 43.182400 -104.582504 328 10553ft 169kts
14-May-19 07:34 43.223273 -104.615301 328 10549ft 169kts
14-May-19 07:35 43.264012 -104.648041 328 10550ft 169kts
14-May-19 07:36 43.304925 -104.680975 328 10554ft 169kts
14-May-19 07:37 43.345482 -104.713673 328 10558ft 168kts
14-May-19 07:38 43.386230 -104.746577 327 10560ft 168kts
14-May-19 07:39 43.426309 -104.778992 327 10560ft 168kts
14-May-19 07:40 43.466700 -104.811709 328 10557ft 169kts
14-May-19 07:41 43.507430 -104.844753 328 10553ft 169kts
14-May-19 07:42 43.548164 -104.877851 328 10550ft 169kts
14-May-19 07:43 43.588890 -104.910985 327 10551ft 169kts
14-May-19 07:44 43.629547 -104.944125 327 10548ft 168kts
14-May-19 07:45 43.670013 -104.977162 327 10541ft 168kts
14-May-19 07:46 43.710667 -105.010408 327 10535ft 168kts
14-May-19 07:47 43.750768 -105.043253 326 10531ft 167kts
14-May-19 07:48 43.790801 -105.076095 326 10528ft 166kts
14-May-19 07:49 43.830641 -105.108830 326 10524ft 165kts
14-May-19 07:50 43.870271 -105.141447 326 10522ft 164kts
14-May-19 07:51 43.909838 -105.174062 326 10522ft 164kts
14-May-19 07:52 43.949329 -105.206644 326 10522ft 164kts
14-May-19 07:53 43.988754 -105.239232 326 10523ft 164kts
14-May-19 07:54 44.028100 -105.271813 326 10522ft 164kts
14-May-19 07:55 44.067545 -105.304527 326 10522ft 164kts
14-May-19 07:56 44.106954 -105.337263 326 10522ft 164kts
14-May-19 07:57 44.148087 -105.371472 326 10128ft 178kts
14-May-19 07:58 44.194533 -105.410158 326 8777ft 203kts
14-May-19 07:59 44.243606 -105.451140 326 7386ft 205kts
14-May-19 08:00 44.293133 -105.492581 326 6045ft 211kts
14-May-19 08:01 44.344024 -105.512622 10 5804ft 189kts
14-May-19 08:02 44.383049 -105.530758 246 5233ft 127kts
14-May-19 08:03 44.357775 -105.544044 173 4388ft 96kts
14-May-19 08:04 44.349412 -105.538939 76 4345ft 18kts
14-May-19 08:05 44.348789 -105.537432 67 4345ft 0kts
14-May-19 08:06 44.348789 -105.537432 67 4345ft 0kts

Navigation Log

Ident Type
Flight plan parsing failed, navigation log unavailable